createdAt,value
2022-10-14T00:00:37.741Z,1007.8
2022-10-14T00:01:40.709Z,1007.8
2022-10-14T00:02:43.182Z,1007.8
2022-10-14T00:03:46.361Z,1007.8
2022-10-14T00:04:48.856Z,1007.8
2022-10-14T00:05:51.910Z,1007.8
2022-10-14T00:06:54.346Z,1007.8
2022-10-14T00:07:57.729Z,1007.8
2022-10-14T00:09:01.830Z,1007.8
2022-10-14T00:10:04.700Z,1007.8
2022-10-14T00:11:08.770Z,1007.8
2022-10-14T00:12:11.753Z,1007.8
2022-10-14T00:13:14.615Z,1007.8
2022-10-14T00:14:17.785Z,1007.8
2022-10-14T00:15:20.651Z,1007.8
2022-10-14T00:16:24.262Z,1007.8
2022-10-14T00:17:27.608Z,1007.8
2022-10-14T00:18:30.528Z,1007.8
2022-10-14T00:19:33.692Z,1007.7
2022-10-14T00:20:36.863Z,1007.7
2022-10-14T00:21:40.135Z,1007.8
2022-10-14T00:22:43.584Z,1007.7
2022-10-14T00:23:45.870Z,1007.7
2022-10-14T00:24:49.958Z,1007.7
2022-10-14T00:25:53.101Z,1007.7
2022-10-14T00:26:56.180Z,1007.7
2022-10-14T00:27:59.168Z,1007.7
2022-10-14T00:29:02.248Z,1007.7
2022-10-14T00:30:05.040Z,1007.7
2022-10-14T00:31:08.103Z,1007.7
2022-10-14T00:32:11.256Z,1007.8
2022-10-14T00:33:14.122Z,1007.7
2022-10-14T00:34:17.114Z,1007.7
2022-10-14T00:35:19.693Z,1007.7
2022-10-14T00:36:23.128Z,1007.7
2022-10-14T00:37:26.470Z,1007.7
2022-10-14T00:38:29.009Z,1007.7
2022-10-14T00:39:31.489Z,1007.7
2022-10-14T00:40:35.346Z,1007.7
2022-10-14T00:41:39.007Z,1007.7
2022-10-14T00:42:42.802Z,1007.6
2022-10-14T00:43:46.231Z,1007.6
2022-10-14T00:44:49.221Z,1007.6
2022-10-14T00:45:51.921Z,1007.6
2022-10-14T00:46:54.723Z,1007.6
2022-10-14T00:47:57.667Z,1007.6
2022-10-14T00:49:00.191Z,1007.6
2022-10-14T00:50:02.495Z,1007.6
2022-10-14T00:51:05.736Z,1007.7
2022-10-14T00:52:09.750Z,1007.7
2022-10-14T00:53:12.888Z,1007.6
2022-10-14T00:54:15.888Z,1007.7
2022-10-14T00:55:18.832Z,1007.7
2022-10-14T00:56:22.653Z,1007.6
2022-10-14T00:57:25.092Z,1007.7
2022-10-14T00:58:28.245Z,1007.7
2022-10-14T00:59:30.794Z,1007.7
2022-10-14T01:00:33.316Z,1007.7
2022-10-14T01:01:36.710Z,1007.7
2022-10-14T01:02:39.609Z,1007.7
2022-10-14T01:03:42.329Z,1007.7
2022-10-14T01:04:45.710Z,1007.7
2022-10-14T01:05:47.392Z,1007.7
2022-10-14T01:06:50.478Z,1007.7
2022-10-14T01:07:53.345Z,1007.7
2022-10-14T01:08:56.683Z,1007.7
2022-10-14T01:09:59.686Z,1007.7
2022-10-14T01:11:03.156Z,1007.7
2022-10-14T01:12:37.115Z,1007.7
2022-10-14T01:13:40.506Z,1007.7
2022-10-14T01:14:43.851Z,1007.7
2022-10-14T01:15:46.092Z,1007.7
2022-10-14T01:16:48.956Z,1007.7
2022-10-14T01:17:52.416Z,1007.7
2022-10-14T01:18:55.868Z,1007.7
2022-10-14T01:19:59.218Z,1007.7
2022-10-14T01:21:02.287Z,1007.7
2022-10-14T01:22:05.157Z,1007.7
2022-10-14T01:23:09.162Z,1007.7
2022-10-14T01:24:12.334Z,1007.7
2022-10-14T01:25:15.484Z,1007.7
2022-10-14T01:26:19.005Z,1007.7
2022-10-14T01:27:22.866Z,1007.6
2022-10-14T01:28:25.728Z,1007.6
2022-10-14T01:29:29.362Z,1007.6
2022-10-14T01:30:32.499Z,1007.6
2022-10-14T01:31:35.260Z,1007.6
2022-10-14T01:32:38.258Z,1007.6
2022-10-14T01:33:41.140Z,1007.6
2022-10-14T01:34:43.650Z,1007.6
2022-10-14T01:35:46.906Z,1007.6
2022-10-14T01:36:49.973Z,1007.6
2022-10-14T01:37:53.409Z,1007.6
2022-10-14T01:38:56.603Z,1007.6
2022-10-14T01:39:59.744Z,1007.6
2022-10-14T01:41:02.944Z,1007.6
2022-10-14T01:42:07.004Z,1007.6
2022-10-14T01:43:11.084Z,1007.6
2022-10-14T01:44:14.338Z,1007.5
2022-10-14T01:45:17.473Z,1007.5
2022-10-14T01:46:20.624Z,1007.5
2022-10-14T01:47:24.044Z,1007.5
2022-10-14T01:48:27.525Z,1007.5
2022-10-14T01:49:30.600Z,1007.5
2022-10-14T01:50:34.033Z,1007.5
2022-10-14T01:51:37.572Z,1007.5
2022-10-14T01:52:40.286Z,1007.4
2022-10-14T01:53:42.675Z,1007.5
2022-10-14T01:54:45.255Z,1007.4
2022-10-14T01:55:48.242Z,1007.4
2022-10-14T01:56:51.235Z,1007.4
2022-10-14T01:57:54.626Z,1007.4
2022-10-14T01:58:58.718Z,1007.4
2022-10-14T02:00:01.798Z,1007.4
2022-10-14T02:01:04.925Z,1007.5
2022-10-14T02:02:07.550Z,1007.4
2022-10-14T02:03:10.956Z,1007.4
2022-10-14T02:04:14.172Z,1007.4
2022-10-14T02:05:17.168Z,1007.4
2022-10-14T02:06:19.874Z,1007.4
2022-10-14T02:07:22.959Z,1007.4
2022-10-14T02:08:26.334Z,1007.4
2022-10-14T02:09:29.715Z,1007.3
2022-10-14T02:10:32.818Z,1007.4
2022-10-14T02:11:35.694Z,1007.4
2022-10-14T02:12:38.699Z,1007.4
2022-10-14T02:13:41.541Z,1007.3
2022-10-14T02:14:45.364Z,1007.3
2022-10-14T02:15:48.800Z,1007.3
2022-10-14T02:16:51.670Z,1007.3
2022-10-14T02:17:54.752Z,1007.3
2022-10-14T02:18:58.131Z,1007.3
2022-10-14T02:20:01.162Z,1007.3
2022-10-14T02:21:04.590Z,1007.3
2022-10-14T02:22:07.745Z,1007.3
2022-10-14T02:23:11.101Z,1007.3
2022-10-14T02:24:14.170Z,1007.3
2022-10-14T02:25:17.353Z,1007.3
2022-10-14T02:26:20.802Z,1007.3
2022-10-14T02:27:23.872Z,1007.3
2022-10-14T02:28:27.105Z,1007.2
2022-10-14T02:29:30.526Z,1007.3
2022-10-14T02:30:34.616Z,1007.3
2022-10-14T02:31:37.849Z,1007.3
2022-10-14T02:32:40.079Z,1007.3
2022-10-14T02:33:42.078Z,1007.3
2022-10-14T02:34:44.590Z,1007.3
2022-10-14T02:35:47.469Z,1007.3
2022-10-14T02:36:50.919Z,1007.3
2022-10-14T02:37:53.512Z,1007.3
2022-10-14T02:38:56.318Z,1007.3
2022-10-14T02:39:59.041Z,1007.3
2022-10-14T02:41:01.926Z,1007.3
2022-10-14T02:42:04.790Z,1007.2
2022-10-14T02:43:08.257Z,1007.2
2022-10-14T02:44:11.105Z,1007.2
2022-10-14T02:45:14.299Z,1007.2
2022-10-14T02:46:18.442Z,1007.1
2022-10-14T02:47:21.419Z,1007.2
2022-10-14T02:48:24.845Z,1007.2
2022-10-14T02:49:27.990Z,1007.2
2022-10-14T02:50:31.370Z,1007.2
2022-10-14T02:51:34.229Z,1007.2
2022-10-14T02:52:37.476Z,1007.2
2022-10-14T02:53:40.552Z,1007.2
2022-10-14T02:54:43.646Z,1007.2
2022-10-14T02:55:47.083Z,1007.1
2022-10-14T02:56:50.361Z,1007.1
2022-10-14T02:57:53.315Z,1007.1
2022-10-14T02:58:56.650Z,1007.1
2022-10-14T03:00:00.107Z,1007.1
2022-10-14T03:01:03.764Z,1007.1
2022-10-14T03:02:08.046Z,1007.1
2022-10-14T03:03:11.137Z,1007.1
2022-10-14T03:04:14.123Z,1007.1
2022-10-14T03:05:16.995Z,1007.1
2022-10-14T03:06:19.713Z,1007.1
2022-10-14T03:07:22.801Z,1007.1
2022-10-14T03:08:25.240Z,1007.1
2022-10-14T03:09:28.609Z,1007.1
2022-10-14T03:10:31.957Z,1007.1
2022-10-14T03:11:34.681Z,1007.1
2022-10-14T03:12:37.191Z,1007
2022-10-14T03:13:40.389Z,1007.1
2022-10-14T03:14:43.264Z,1007.1
2022-10-14T03:15:46.708Z,1007.1
2022-10-14T03:16:49.645Z,1007.1
2022-10-14T03:17:53.796Z,1007.1
2022-10-14T03:18:56.044Z,1007.2
2022-10-14T03:19:59.009Z,1007.1
2022-10-14T03:21:02.487Z,1007.1
2022-10-14T03:22:05.356Z,1007.1
2022-10-14T03:23:08.703Z,1007.1
2022-10-14T03:24:11.501Z,1007.1
2022-10-14T03:25:13.655Z,1007.1
2022-10-14T03:26:16.815Z,1007.2
2022-10-14T03:27:19.052Z,1007.2
2022-10-14T03:28:22.633Z,1007.2
2022-10-14T03:29:25.984Z,1007.2
2022-10-14T03:30:29.363Z,1007.2
2022-10-14T03:31:32.153Z,1007.1
2022-10-14T03:32:35.295Z,1007.1
2022-10-14T03:33:39.396Z,1007.2
2022-10-14T03:34:42.581Z,1007.1
2022-10-14T03:35:45.575Z,1007.1
2022-10-14T03:36:48.451Z,1007.1
2022-10-14T03:37:51.502Z,1007.1
2022-10-14T03:38:54.841Z,1007.1
2022-10-14T03:39:58.177Z,1007.1
2022-10-14T03:41:00.753Z,1007.1
2022-10-14T03:42:03.623Z,1007
2022-10-14T03:43:07.347Z,1007
2022-10-14T03:44:10.580Z,1007.1
2022-10-14T03:45:13.760Z,1007.1
2022-10-14T03:46:16.197Z,1007.1
2022-10-14T03:47:19.432Z,1007.1
2022-10-14T03:48:22.822Z,1007.1
2022-10-14T03:49:26.986Z,1007.1
2022-10-14T03:50:30.023Z,1007.1
2022-10-14T03:51:32.640Z,1007.1
2022-10-14T03:52:35.450Z,1007.1
2022-10-14T03:53:38.798Z,1007.1
2022-10-14T03:54:42.039Z,1007.1
2022-10-14T03:55:44.912Z,1007.1
2022-10-14T03:56:48.100Z,1007.1
2022-10-14T03:57:50.898Z,1007.1
2022-10-14T03:58:53.683Z,1007.1
2022-10-14T03:59:56.191Z,1007.1
2022-10-14T04:00:59.416Z,1007
2022-10-14T04:02:01.688Z,1007.1
2022-10-14T04:03:04.466Z,1007.1
2022-10-14T04:04:07.573Z,1007.1
2022-10-14T04:05:11.738Z,1007
2022-10-14T04:06:14.176Z,1007.1
2022-10-14T04:07:17.550Z,1007.1
2022-10-14T04:08:20.536Z,1007.1
2022-10-14T04:09:23.690Z,1007.1
2022-10-14T04:10:27.042Z,1007.1
2022-10-14T04:11:30.271Z,1007.1
2022-10-14T04:12:33.726Z,1007.1
2022-10-14T04:13:36.447Z,1007.1
2022-10-14T04:14:39.337Z,1007.1
2022-10-14T04:15:42.339Z,1007.1
2022-10-14T04:16:50.276Z,1007.1
2022-10-14T04:17:53.184Z,1007.1
2022-10-14T04:18:55.727Z,1007.1
2022-10-14T04:19:59.494Z,1007.1
2022-10-14T04:21:03.650Z,1007
2022-10-14T04:22:06.533Z,1007
2022-10-14T04:23:09.615Z,1007
2022-10-14T04:24:12.201Z,1007
2022-10-14T04:25:15.278Z,1007
2022-10-14T04:26:18.342Z,1007
2022-10-14T04:27:21.695Z,1007
2022-10-14T04:28:24.624Z,1007
2022-10-14T04:29:27.808Z,1007
2022-10-14T04:30:31.506Z,1007
2022-10-14T04:31:34.228Z,1007
2022-10-14T04:32:37.021Z,1007
2022-10-14T04:33:39.822Z,1007
2022-10-14T04:34:42.420Z,1007
2022-10-14T04:35:45.632Z,1007
2022-10-14T04:36:49.484Z,1007
2022-10-14T04:37:52.864Z,1007
2022-10-14T04:38:56.020Z,1007
2022-10-14T04:39:58.811Z,1007
2022-10-14T04:41:01.883Z,1007
2022-10-14T04:42:04.391Z,1007
2022-10-14T04:43:07.276Z,1006.9
2022-10-14T04:44:10.352Z,1007
2022-10-14T04:45:13.624Z,1006.9
2022-10-14T04:46:17.081Z,1006.9
2022-10-14T04:47:19.892Z,1006.9
2022-10-14T04:48:23.672Z,1006.9
2022-10-14T04:49:27.029Z,1006.9
2022-10-14T04:50:30.171Z,1006.9
2022-10-14T04:51:33.554Z,1006.9
2022-10-14T04:52:37.654Z,1006.9
2022-10-14T04:53:40.440Z,1006.9
2022-10-14T04:54:43.878Z,1006.9
2022-10-14T04:55:47.018Z,1006.9
2022-10-14T04:56:50.481Z,1006.9
2022-10-14T04:57:53.657Z,1006.9
2022-10-14T04:58:56.392Z,1006.9
2022-10-14T04:59:59.286Z,1006.9
2022-10-14T05:01:02.644Z,1006.9
2022-10-14T05:02:05.826Z,1006.9
2022-10-14T05:03:09.553Z,1006.9
2022-10-14T05:04:12.346Z,1006.9
2022-10-14T05:05:15.790Z,1006.8
2022-10-14T05:06:18.574Z,1006.8
2022-10-14T05:07:22.058Z,1006.9
2022-10-14T05:08:26.251Z,1006.9
2022-10-14T05:09:29.415Z,1006.9
2022-10-14T05:10:32.921Z,1006.9
2022-10-14T05:11:36.203Z,1006.9
2022-10-14T05:12:39.001Z,1006.9
2022-10-14T05:13:41.388Z,1006.9
2022-10-14T05:14:44.576Z,1006.8
2022-10-14T05:15:47.730Z,1006.8
2022-10-14T05:16:51.142Z,1006.8
2022-10-14T05:17:54.925Z,1006.8
2022-10-14T05:18:58.374Z,1006.8
2022-10-14T05:20:01.171Z,1006.8
2022-10-14T05:21:04.072Z,1006.8
2022-10-14T05:22:06.876Z,1006.8
2022-10-14T05:23:10.449Z,1006.8
2022-10-14T05:24:14.528Z,1006.8
2022-10-14T05:25:17.400Z,1006.8
2022-10-14T05:26:20.518Z,1006.8
2022-10-14T05:27:24.217Z,1006.8
2022-10-14T05:28:27.449Z,1006.8
2022-10-14T05:29:31.479Z,1006.8
2022-10-14T05:30:35.249Z,1006.8
2022-10-14T05:31:38.121Z,1006.8
2022-10-14T05:32:41.004Z,1006.8
2022-10-14T05:33:43.884Z,1006.8
2022-10-14T05:34:46.598Z,1006.8
2022-10-14T05:36:04.857Z,1006.8
2022-10-14T05:37:08.234Z,1006.8
2022-10-14T05:38:11.026Z,1006.8
2022-10-14T05:39:14.545Z,1006.8
2022-10-14T05:40:18.708Z,1006.8
2022-10-14T05:41:21.894Z,1006.8
2022-10-14T05:42:25.637Z,1006.8
2022-10-14T05:43:33.190Z,1006.8
2022-10-14T05:44:36.460Z,1006.8
2022-10-14T05:45:39.801Z,1006.8
2022-10-14T05:46:43.815Z,1006.8
2022-10-14T05:47:46.536Z,1006.8
2022-10-14T05:48:49.598Z,1006.8
2022-10-14T05:49:52.767Z,1006.8
2022-10-14T05:50:55.395Z,1006.8
2022-10-14T05:51:58.259Z,1006.8
2022-10-14T05:53:02.057Z,1006.8
2022-10-14T05:54:05.512Z,1006.8
2022-10-14T05:55:08.722Z,1006.8
2022-10-14T05:56:12.513Z,1006.8
2022-10-14T05:57:15.385Z,1006.8
2022-10-14T05:58:19.111Z,1006.8
2022-10-14T05:59:21.911Z,1006.8
2022-10-14T06:00:26.495Z,1006.8
2022-10-14T06:01:29.384Z,1006.8
2022-10-14T06:02:33.051Z,1006.8
2022-10-14T06:03:35.636Z,1006.8
2022-10-14T06:04:38.434Z,1006.9
2022-10-14T06:05:41.222Z,1006.9
2022-10-14T06:06:44.880Z,1006.8
2022-10-14T06:07:48.398Z,1006.8
2022-10-14T06:08:51.544Z,1006.8
2022-10-14T06:09:54.610Z,1006.8
2022-10-14T06:10:57.742Z,1006.8
2022-10-14T06:12:01.940Z,1006.8
2022-10-14T06:13:04.265Z,1006.8
2022-10-14T06:14:07.425Z,1006.8
2022-10-14T06:15:10.304Z,1006.8
2022-10-14T06:16:13.375Z,1006.8
2022-10-14T06:17:18.077Z,1006.8
2022-10-14T06:18:21.103Z,1006.8
2022-10-14T06:19:24.237Z,1006.8
2022-10-14T06:20:27.783Z,1006.8
2022-10-14T06:21:30.510Z,1006.8
2022-10-14T06:22:33.662Z,1006.7
2022-10-14T06:23:36.949Z,1006.7
2022-10-14T06:24:40.097Z,1006.7
2022-10-14T06:25:43.477Z,1006.7
2022-10-14T06:26:47.017Z,1006.8
2022-10-14T06:27:51.198Z,1006.8
2022-10-14T06:28:54.663Z,1006.7
2022-10-14T06:29:58.136Z,1006.7
2022-10-14T06:31:01.295Z,1006.7
2022-10-14T06:32:04.175Z,1006.7
2022-10-14T06:33:07.531Z,1006.7
2022-10-14T06:34:10.595Z,1006.7
2022-10-14T06:35:14.241Z,1006.6
2022-10-14T06:36:16.875Z,1006.6
2022-10-14T06:37:19.470Z,1006.6
2022-10-14T06:38:23.207Z,1006.6
2022-10-14T06:39:26.731Z,1006.6
2022-10-14T06:40:29.844Z,1006.5
2022-10-14T06:41:32.823Z,1006.5
2022-10-14T06:42:36.566Z,1006.6
2022-10-14T06:43:40.666Z,1006.6
2022-10-14T06:44:43.509Z,1006.6
2022-10-14T06:45:46.489Z,1006.7
2022-10-14T06:46:49.679Z,1006.7
2022-10-14T06:47:52.533Z,1006.7
2022-10-14T06:48:55.513Z,1006.7
2022-10-14T06:49:58.977Z,1006.7
2022-10-14T06:51:01.586Z,1006.7
2022-10-14T06:52:05.025Z,1006.7
2022-10-14T06:53:08.396Z,1006.7
2022-10-14T06:54:11.549Z,1006.6
2022-10-14T06:55:14.892Z,1006.6
2022-10-14T06:56:18.257Z,1006.6
2022-10-14T06:57:21.393Z,1006.6
2022-10-14T06:58:24.449Z,1006.6
2022-10-14T06:59:28.691Z,1006.6
2022-10-14T07:00:31.213Z,1006.6
2022-10-14T07:01:34.711Z,1006.6
2022-10-14T07:02:38.550Z,1006.6
2022-10-14T07:03:41.384Z,1006.6
2022-10-14T07:04:44.373Z,1006.6
2022-10-14T07:05:47.629Z,1006.6
2022-10-14T07:06:50.701Z,1006.6
2022-10-14T07:07:53.886Z,1006.6
2022-10-14T07:08:57.196Z,1006.7
2022-10-14T07:10:00.185Z,1006.7
2022-10-14T07:11:02.969Z,1006.7
2022-10-14T07:12:05.477Z,1006.7
2022-10-14T07:13:08.285Z,1006.7
2022-10-14T07:14:11.758Z,1006.7
2022-10-14T07:15:15.869Z,1006.7
2022-10-14T07:16:18.672Z,1006.7
2022-10-14T07:17:22.362Z,1006.8
2022-10-14T07:18:26.864Z,1006.7
2022-10-14T07:19:30.142Z,1006.8
2022-10-14T07:20:32.731Z,1006.8
2022-10-14T07:21:35.807Z,1006.8
2022-10-14T07:22:39.685Z,1006.8
2022-10-14T07:23:42.676Z,1006.8
2022-10-14T07:24:45.139Z,1006.8
2022-10-14T07:25:48.238Z,1006.8
2022-10-14T07:26:51.901Z,1006.8
2022-10-14T07:27:55.626Z,1006.8
2022-10-14T07:28:58.937Z,1006.8
2022-10-14T07:30:02.774Z,1006.8
2022-10-14T07:31:06.897Z,1006.8
2022-10-14T07:32:10.350Z,1006.8
2022-10-14T07:33:13.142Z,1006.8
2022-10-14T07:34:16.411Z,1006.8
2022-10-14T07:35:19.829Z,1006.8
2022-10-14T07:36:23.453Z,1006.8
2022-10-14T07:37:26.278Z,1006.8
2022-10-14T07:38:29.695Z,1006.8
2022-10-14T07:39:32.495Z,1006.8
2022-10-14T07:40:35.514Z,1006.8
2022-10-14T07:41:38.688Z,1006.8
2022-10-14T07:42:41.591Z,1006.8
2022-10-14T07:43:45.073Z,1006.8
2022-10-14T07:44:48.034Z,1006.8
2022-10-14T07:45:51.512Z,1006.8
2022-10-14T07:46:55.694Z,1006.8
2022-10-14T07:47:58.404Z,1006.8
2022-10-14T07:49:01.551Z,1006.8
2022-10-14T07:50:05.275Z,1006.8
2022-10-14T07:51:08.555Z,1006.8
2022-10-14T07:52:11.262Z,1006.9
2022-10-14T07:53:14.876Z,1006.8
2022-10-14T07:54:18.025Z,1006.8
2022-10-14T07:55:21.187Z,1006.8
2022-10-14T07:56:23.762Z,1006.8
2022-10-14T07:57:26.755Z,1006.8
2022-10-14T07:58:29.906Z,1006.8
2022-10-14T07:59:33.246Z,1006.9
2022-10-14T08:00:36.928Z,1006.8
2022-10-14T08:01:40.074Z,1006.8
2022-10-14T08:02:44.760Z,1006.9
2022-10-14T08:03:47.895Z,1006.9
2022-10-14T08:04:50.965Z,1006.9
2022-10-14T08:05:53.451Z,1006.9
2022-10-14T08:06:56.339Z,1006.9
2022-10-14T08:07:59.738Z,1006.9
2022-10-14T08:09:02.938Z,1006.8
2022-10-14T08:10:06.004Z,1006.9
2022-10-14T08:11:08.705Z,1006.9
2022-10-14T08:12:11.814Z,1006.9
2022-10-14T08:13:14.704Z,1006.9
2022-10-14T08:14:18.783Z,1006.9
2022-10-14T08:15:21.683Z,1006.9
2022-10-14T08:16:24.765Z,1006.9
2022-10-14T08:17:27.628Z,1006.9
2022-10-14T08:18:31.720Z,1006.9
2022-10-14T08:19:34.816Z,1006.9
2022-10-14T08:20:37.719Z,1006.9
2022-10-14T08:21:41.169Z,1006.9
2022-10-14T08:22:44.099Z,1006.9
2022-10-14T08:23:46.623Z,1006.9
2022-10-14T08:24:49.730Z,1006.9
2022-10-14T08:25:52.892Z,1006.9
2022-10-14T08:26:55.496Z,1006.9
2022-10-14T08:27:58.129Z,1006.9
2022-10-14T08:29:01.292Z,1006.8
2022-10-14T08:30:11.399Z,1006.9
2022-10-14T08:31:14.804Z,1006.9
2022-10-14T08:32:17.533Z,1006.9
2022-10-14T08:33:21.781Z,1006.8
2022-10-14T08:34:25.960Z,1006.9
2022-10-14T08:35:28.848Z,1006.8
2022-10-14T08:36:31.667Z,1006.8
2022-10-14T08:37:35.095Z,1006.9
2022-10-14T08:38:37.986Z,1006.8
2022-10-14T08:39:41.241Z,1006.9
2022-10-14T08:40:44.313Z,1006.8
2022-10-14T08:41:47.189Z,1006.8
2022-10-14T08:42:49.505Z,1006.9
2022-10-14T08:43:53.236Z,1006.9
2022-10-14T08:44:56.319Z,1006.8
2022-10-14T08:45:59.809Z,1006.8
2022-10-14T08:47:02.695Z,1006.8
2022-10-14T08:48:06.124Z,1006.8
2022-10-14T08:49:09.233Z,1006.8
2022-10-14T08:50:13.369Z,1006.8
2022-10-14T08:51:16.802Z,1006.8
2022-10-14T08:52:20.697Z,1006.8
2022-10-14T08:53:25.837Z,1006.8
2022-10-14T08:54:28.941Z,1006.8
2022-10-14T08:55:31.884Z,1006.8
2022-10-14T08:56:35.606Z,1006.7
2022-10-14T08:57:38.490Z,1006.7
2022-10-14T08:58:41.003Z,1006.8
2022-10-14T08:59:43.810Z,1006.7
2022-10-14T09:00:47.166Z,1006.7
2022-10-14T09:01:50.626Z,1006.7
2022-10-14T09:02:54.170Z,1006.7
2022-10-14T09:03:57.860Z,1006.7
2022-10-14T09:05:01.352Z,1006.7
2022-10-14T09:06:05.631Z,1006.7
2022-10-14T09:07:08.853Z,1006.7
2022-10-14T09:08:11.637Z,1006.6
2022-10-14T09:09:14.987Z,1006.7
2022-10-14T09:10:17.986Z,1006.7
2022-10-14T09:11:20.926Z,1006.7
2022-10-14T09:12:25.454Z,1006.7
2022-10-14T09:13:28.921Z,1006.7
2022-10-14T09:14:31.975Z,1006.7
2022-10-14T09:15:34.504Z,1006.7
2022-10-14T09:16:37.381Z,1006.7
2022-10-14T09:17:40.462Z,1006.7
2022-10-14T09:18:43.969Z,1006.7
2022-10-14T09:19:46.485Z,1006.7
2022-10-14T09:20:49.344Z,1006.6
2022-10-14T09:21:54.229Z,1006.6
2022-10-14T09:22:57.585Z,1006.7
2022-10-14T09:24:00.985Z,1006.7
2022-10-14T09:25:04.506Z,1006.7
2022-10-14T09:26:07.581Z,1006.7
2022-10-14T09:27:11.022Z,1006.6
2022-10-14T09:28:15.099Z,1006.6
2022-10-14T09:29:17.843Z,1006.6
2022-10-14T09:30:21.499Z,1006.7
2022-10-14T09:31:24.912Z,1006.7
2022-10-14T09:32:28.219Z,1006.7
2022-10-14T09:33:31.600Z,1006.6
2022-10-14T09:34:34.471Z,1006.7
2022-10-14T09:35:37.828Z,1006.6
2022-10-14T09:36:41.176Z,1006.7
2022-10-14T09:37:45.297Z,1006.7
2022-10-14T09:38:48.477Z,1006.6
2022-10-14T09:39:51.909Z,1006.6
2022-10-14T09:40:55.652Z,1006.6
2022-10-14T09:41:57.879Z,1006.6
2022-10-14T09:43:01.044Z,1006.7
2022-10-14T09:44:03.475Z,1006.7
2022-10-14T09:46:11.449Z,1006.7
2022-10-14T09:47:14.164Z,1006.7
2022-10-14T09:48:16.612Z,1006.6
2022-10-14T09:49:19.202Z,1006.6
2022-10-14T09:50:22.941Z,1006.7
2022-10-14T09:51:26.307Z,1006.7
2022-10-14T09:52:29.413Z,1006.6
2022-10-14T09:53:33.299Z,1006.7
2022-10-14T09:54:35.865Z,1006.7
2022-10-14T09:55:38.524Z,1006.7
2022-10-14T09:56:42.832Z,1006.7
2022-10-14T09:57:46.013Z,1006.7
2022-10-14T09:58:49.165Z,1006.7
2022-10-14T09:59:52.055Z,1006.8
2022-10-14T10:00:54.942Z,1006.7
2022-10-14T10:01:58.313Z,1006.7
2022-10-14T10:03:01.484Z,1006.7
2022-10-14T10:04:04.363Z,1006.6
2022-10-14T10:05:07.798Z,1006.6
2022-10-14T10:06:11.195Z,1006.6
2022-10-14T10:07:14.564Z,1006.6
2022-10-14T10:08:17.970Z,1006.6
2022-10-14T10:09:22.180Z,1006.6
2022-10-14T10:10:25.600Z,1006.6
2022-10-14T10:11:28.751Z,1006.6
2022-10-14T10:12:31.856Z,1006.6
2022-10-14T10:13:35.286Z,1006.5
2022-10-14T10:14:38.638Z,1006.5
2022-10-14T10:15:41.992Z,1006.5
2022-10-14T10:16:44.957Z,1006.5
2022-10-14T10:17:48.378Z,1006.5
2022-10-14T10:18:51.102Z,1006.5
2022-10-14T10:19:54.232Z,1006.4
2022-10-14T10:20:57.567Z,1006.4
2022-10-14T10:22:00.909Z,1006.4
2022-10-14T10:23:04.322Z,1006.4
2022-10-14T10:24:07.164Z,1006.4
2022-10-14T10:25:10.993Z,1006.4
2022-10-14T10:26:14.091Z,1006.3
2022-10-14T10:27:17.570Z,1006.3
2022-10-14T10:28:21.150Z,1006.3
2022-10-14T10:29:24.167Z,1006.3
2022-10-14T10:30:26.893Z,1006.3
2022-10-14T10:31:29.889Z,1006.3
2022-10-14T10:32:34.051Z,1006.2
2022-10-14T10:33:37.186Z,1006.2
2022-10-14T10:34:40.616Z,1006.2
2022-10-14T10:35:43.858Z,1006.1
2022-10-14T10:36:46.716Z,1006.1
2022-10-14T10:37:50.448Z,1006.1
2022-10-14T10:38:53.189Z,1006.1
2022-10-14T10:39:56.988Z,1006.1
2022-10-14T10:41:00.931Z,1006.1
2022-10-14T10:42:04.126Z,1006.1
2022-10-14T10:43:07.038Z,1006
2022-10-14T10:44:10.670Z,1006
2022-10-14T10:45:14.145Z,1006
2022-10-14T10:46:17.470Z,1006
2022-10-14T10:47:20.544Z,1006
2022-10-14T10:48:23.401Z,1006
2022-10-14T10:49:26.483Z,1006.1
2022-10-14T10:50:29.612Z,1006
2022-10-14T10:51:32.922Z,1006
2022-10-14T10:52:35.617Z,1006
2022-10-14T10:53:39.040Z,1006
2022-10-14T10:54:41.454Z,1006
2022-10-14T10:55:44.647Z,1005.9
2022-10-14T10:56:49.006Z,1005.9
2022-10-14T10:57:52.139Z,1005.9
2022-10-14T10:58:54.921Z,1005.9
2022-10-14T10:59:58.127Z,1005.9
2022-10-14T11:01:01.318Z,1005.8
2022-10-14T11:02:04.149Z,1005.7
2022-10-14T11:03:07.371Z,1005.8
2022-10-14T11:04:10.224Z,1005.7
2022-10-14T11:05:12.954Z,1005.7
2022-10-14T11:06:15.165Z,1005.7
2022-10-14T11:07:17.387Z,1005.7
2022-10-14T11:08:20.870Z,1005.6
2022-10-14T11:09:24.141Z,1005.6
2022-10-14T11:10:27.773Z,1005.6
2022-10-14T11:11:31.514Z,1005.6
2022-10-14T11:12:35.631Z,1005.6
2022-10-14T11:13:38.947Z,1005.6
2022-10-14T11:14:41.920Z,1005.6
2022-10-14T11:15:44.146Z,1005.6
2022-10-14T11:16:46.925Z,1005.6
2022-10-14T11:17:49.942Z,1005.6
2022-10-14T11:18:52.909Z,1005.6
2022-10-14T11:19:56.319Z,1005.5
2022-10-14T11:20:59.443Z,1005.6
2022-10-14T11:22:02.080Z,1005.5
2022-10-14T11:23:04.924Z,1005.5
2022-10-14T11:24:08.741Z,1005.6
2022-10-14T11:25:11.742Z,1005.5
2022-10-14T11:26:13.964Z,1005.5
2022-10-14T11:27:22.483Z,1005.5
2022-10-14T11:28:30.550Z,1005.5
2022-10-14T11:29:33.549Z,1005.5
2022-10-14T11:30:37.462Z,1005.4
2022-10-14T11:31:40.914Z,1005.5
2022-10-14T11:32:43.434Z,1005.5
2022-10-14T11:33:45.868Z,1005.5
2022-10-14T11:34:49.231Z,1005.5
2022-10-14T11:35:52.730Z,1005.4
2022-10-14T11:36:55.965Z,1005.4
2022-10-14T11:37:57.937Z,1005.4
2022-10-14T11:39:00.837Z,1005.4
2022-10-14T11:40:04.288Z,1005.4
2022-10-14T11:41:08.222Z,1005.4
2022-10-14T11:42:10.828Z,1005.4
2022-10-14T11:43:13.671Z,1005.3
2022-10-14T11:44:18.020Z,1005.3
2022-10-14T11:45:22.072Z,1005.3
2022-10-14T11:46:25.517Z,1005.3
2022-10-14T11:47:28.674Z,1005.3
2022-10-14T11:48:31.925Z,1005.3
2022-10-14T11:49:34.818Z,1005.3
2022-10-14T11:50:38.156Z,1005.3
2022-10-14T11:51:41.358Z,1005.2
2022-10-14T11:52:45.362Z,1005.2
2022-10-14T11:53:49.450Z,1005.2
2022-10-14T11:54:52.378Z,1005.2
2022-10-14T11:55:55.722Z,1005.2
2022-10-14T11:56:58.691Z,1005.2
2022-10-14T11:58:02.136Z,1005.1
2022-10-14T11:59:05.438Z,1005.2
2022-10-14T12:00:09.551Z,1005.1
2022-10-14T12:01:12.461Z,1005.1
2022-10-14T12:02:16.095Z,1005
2022-10-14T12:03:19.606Z,1005
2022-10-14T12:04:22.954Z,1005
2022-10-14T12:05:26.315Z,1005.1
2022-10-14T12:06:29.656Z,1005
2022-10-14T12:07:33.115Z,1005
2022-10-14T12:08:36.385Z,1005.1
2022-10-14T12:09:38.936Z,1005.1
2022-10-14T12:10:42.312Z,1005.1
2022-10-14T12:11:45.455Z,1005.1
2022-10-14T12:12:49.009Z,1005.1
2022-10-14T12:13:52.079Z,1005.1
2022-10-14T12:14:55.585Z,1005
2022-10-14T12:15:59.655Z,1005.1
2022-10-14T12:17:03.318Z,1005.1
2022-10-14T12:18:06.674Z,1005.1
2022-10-14T12:19:09.391Z,1005.1
2022-10-14T12:20:12.975Z,1005.1
2022-10-14T12:21:16.410Z,1005.1
2022-10-14T12:22:20.711Z,1005.1
2022-10-14T12:23:26.409Z,1005.2
2022-10-14T12:24:28.845Z,1005.1
2022-10-14T12:25:32.291Z,1005.2
2022-10-14T12:26:36.285Z,1005.2
2022-10-14T12:27:38.965Z,1005.2
2022-10-14T12:28:42.813Z,1005.2
2022-10-14T12:29:46.953Z,1005.2
2022-10-14T12:30:49.808Z,1005.2
2022-10-14T12:31:53.612Z,1005.2
2022-10-14T12:32:56.484Z,1005.2
2022-10-14T12:33:58.917Z,1005.2
2022-10-14T12:35:02.365Z,1005.2
2022-10-14T12:36:05.298Z,1005.2
2022-10-14T12:37:08.435Z,1005.2
2022-10-14T12:38:11.624Z,1005.2
2022-10-14T12:39:14.768Z,1005.2
2022-10-14T12:40:17.568Z,1005.1
2022-10-14T12:41:20.102Z,1005.1
2022-10-14T12:42:24.254Z,1005.1
2022-10-14T12:43:27.983Z,1005.1
2022-10-14T12:44:30.786Z,1005.2
2022-10-14T12:45:33.373Z,1005.1
2022-10-14T12:46:36.777Z,1005.1
2022-10-14T12:47:40.945Z,1005.1
2022-10-14T12:48:43.557Z,1005.1
2022-10-14T12:49:46.441Z,1005.1
2022-10-14T12:50:49.933Z,1005.1
2022-10-14T12:51:52.650Z,1005.1
2022-10-14T12:52:55.794Z,1005.1
2022-10-14T12:53:58.969Z,1005.1
2022-10-14T12:55:02.973Z,1005.1
2022-10-14T12:56:06.120Z,1005.1
2022-10-14T12:57:09.004Z,1005.1
2022-10-14T12:58:12.453Z,1005.1
2022-10-14T12:59:17.520Z,1005.1
2022-10-14T13:00:20.912Z,1005.1
2022-10-14T13:01:23.970Z,1005.1
2022-10-14T13:02:27.032Z,1005.1
2022-10-14T13:03:30.888Z,1005.1
2022-10-14T13:04:33.223Z,1005.1
2022-10-14T13:05:36.374Z,1005.1
2022-10-14T13:06:39.734Z,1005.1
2022-10-14T13:07:43.275Z,1005.1
2022-10-14T13:08:49.410Z,1005.1
2022-10-14T13:09:52.942Z,1005.1
2022-10-14T13:10:55.804Z,1005.1
2022-10-14T13:11:58.597Z,1005.1
2022-10-14T13:13:01.546Z,1005.1
2022-10-14T13:14:05.286Z,1005.1